AVA5325 SKBO-SKCL
Flight info
| Callsign | AVA5325 |
|---|---|
| Flight time | 0h 35m |
| Altitude | 24000 |
| Route | KAMIS4C KAMIS W16 GIR R564 OREGA OREGA5A |
| Aircraft | A320/M-SDE3FGHIRWY/LB1 |
Departure
| Time | 2026-04-26 23:05 |
|---|---|
| Airport | El Dorado International Airport (SKBO) |
Arrival
| Time | 2026-04-26 23:41 |
|---|---|
| Airport | Alfonso Bonilla Aragon International Airport (SKCL) |
| Time | Latitude | Longitude | Altitude | Speed | Heading |
|---|---|---|---|---|---|
| 2026-04-26 22:08 | 4.69760 | -74.14492 | 8366 ft | 0 kts | 37° |
| 2026-04-26 22:43 | 4.69748 | -74.14503 | 8345 ft | 2 kts | 45° |
| 2026-04-26 22:43 | 4.69740 | -74.14511 | 8371 ft | 2 kts | 45° |
| 2026-04-26 22:43 | 4.69728 | -74.14522 | 8370 ft | 2 kts | 9° |
| 2026-04-26 22:43 | 4.69708 | -74.14518 | 8366 ft | 2 kts | 303° |
| 2026-04-26 22:44 | 4.69702 | -74.14509 | 8366 ft | 2 kts | 319° |
| 2026-04-26 22:44 | 4.69696 | -74.14504 | 8366 ft | 0 kts | 304° |
| 2026-04-26 22:50 | 4.69709 | -74.14523 | 8366 ft | 2 kts | 304° |
| 2026-04-26 22:50 | 4.69714 | -74.14531 | 8366 ft | 6 kts | 304° |
| 2026-04-26 22:50 | 4.69761 | -74.14594 | 8366 ft | 16 kts | 307° |
| 2026-04-26 22:50 | 4.69825 | -74.14678 | 8366 ft | 14 kts | 307° |
| 2026-04-26 22:51 | 4.69878 | -74.14753 | 8366 ft | 12 kts | 306° |
| 2026-04-26 22:51 | 4.69926 | -74.14816 | 8366 ft | 11 kts | 307° |
| 2026-04-26 22:51 | 4.69913 | -74.14891 | 8366 ft | 12 kts | 220° |
| 2026-04-26 22:51 | 4.69858 | -74.14933 | 8366 ft | 8 kts | 224° |
| 2026-04-26 22:52 | 4.69856 | -74.14978 | 8366 ft | 10 kts | 297° |
| 2026-04-26 22:52 | 4.69902 | -74.15038 | 8366 ft | 10 kts | 308° |
| 2026-04-26 22:52 | 4.69948 | -74.15099 | 8366 ft | 12 kts | 307° |
| 2026-04-26 22:52 | 4.69993 | -74.15159 | 8366 ft | 11 kts | 307° |
| 2026-04-26 22:53 | 4.70042 | -74.15224 | 8366 ft | 12 kts | 307° |
| 2026-04-26 22:53 | 4.70099 | -74.15299 | 8366 ft | 17 kts | 307° |
| 2026-04-26 22:53 | 4.70184 | -74.15412 | 8365 ft | 20 kts | 308° |
| 2026-04-26 22:53 | 4.70264 | -74.15516 | 8366 ft | 18 kts | 307° |
| 2026-04-26 22:54 | 4.70337 | -74.15613 | 8365 ft | 16 kts | 307° |
| 2026-04-26 22:54 | 4.70400 | -74.15696 | 8366 ft | 14 kts | 307° |
| 2026-04-26 22:54 | 4.70457 | -74.15772 | 8365 ft | 13 kts | 307° |
| 2026-04-26 22:54 | 4.70527 | -74.15866 | 8366 ft | 20 kts | 306° |
| 2026-04-26 22:55 | 4.70626 | -74.15994 | 8366 ft | 28 kts | 308° |
| 2026-04-26 22:55 | 4.70753 | -74.16162 | 8366 ft | 29 kts | 307° |
| 2026-04-26 22:55 | 4.70868 | -74.16313 | 8366 ft | 26 kts | 307° |
| 2026-04-26 22:55 | 4.70972 | -74.16451 | 8366 ft | 24 kts | 307° |
| 2026-04-26 22:56 | 4.71067 | -74.16577 | 8366 ft | 21 kts | 307° |
| 2026-04-26 22:56 | 4.71153 | -74.16691 | 8366 ft | 20 kts | 307° |
| 2026-04-26 22:56 | 4.71234 | -74.16797 | 8366 ft | 18 kts | 307° |
| 2026-04-26 22:56 | 4.71230 | -74.16868 | 8366 ft | 0 kts | 221° |
| 2026-04-26 22:57 | 4.71229 | -74.16869 | 8366 ft | 0 kts | 216° |
| 2026-04-26 23:01 | 4.71220 | -74.16875 | 8366 ft | 2 kts | 216° |
| 2026-04-26 23:01 | 4.71199 | -74.16890 | 8365 ft | 10 kts | 212° |
| 2026-04-26 23:02 | 4.71140 | -74.16893 | 8364 ft | 10 kts | 172° |
| 2026-04-26 23:02 | 4.71047 | -74.16880 | 8363 ft | 14 kts | 169° |
| 2026-04-26 23:02 | 4.70990 | -74.16835 | 8363 ft | 1 kts | 127° |
| 2026-04-26 23:04 | 4.70989 | -74.16834 | 8363 ft | 2 kts | 127° |
| 2026-04-26 23:05 | 4.70863 | -74.16667 | 8363 ft | 71 kts | 127° |
| 2026-04-26 23:05 | 4.70404 | -74.16062 | 8365 ft | 145 kts | 127° |
| 2026-04-26 23:05 | 4.69681 | -74.15084 | 8541 ft | 191 kts | 124° |
| 2026-04-26 23:05 | 4.68887 | -74.13996 | 9535 ft | 194 kts | 127° |
| 2026-04-26 23:06 | 4.68075 | -74.12920 | 10276 ft | 194 kts | 127° |
| 2026-04-26 23:06 | 4.67214 | -74.11789 | 10480 ft | 214 kts | 127° |
| 2026-04-26 23:06 | 4.66100 | -74.10743 | 10647 ft | 233 kts | 156° |
| 2026-04-26 23:06 | 4.64430 | -74.10562 | 10810 ft | 256 kts | 195° |
| 2026-04-26 23:07 | 4.62885 | -74.11500 | 11178 ft | 272 kts | 231° |
| 2026-04-26 23:07 | 4.62061 | -74.13218 | 11813 ft | 278 kts | 256° |
| 2026-04-26 23:07 | 4.61756 | -74.15139 | 12551 ft | 280 kts | 265° |
| 2026-04-26 23:07 | 4.61615 | -74.17095 | 13320 ft | 283 kts | 266° |
| 2026-04-26 23:08 | 4.61474 | -74.19072 | 14096 ft | 285 kts | 265° |
| 2026-04-26 23:08 | 4.61274 | -74.21058 | 14785 ft | 286 kts | 263° |
| 2026-04-26 23:08 | 4.61012 | -74.23051 | 15391 ft | 291 kts | 262° |
| 2026-04-26 23:08 | 4.60700 | -74.25065 | 15867 ft | 295 kts | 261° |
| 2026-04-26 23:09 | 4.60294 | -74.27078 | 15975 ft | 295 kts | 249° |
| 2026-04-26 23:09 | 4.59248 | -74.28904 | 16001 ft | 315 kts | 236° |
| 2026-04-26 23:09 | 4.57963 | -74.30768 | 15994 ft | 342 kts | 235° |
| 2026-04-26 23:09 | 4.56544 | -74.32795 | 15972 ft | 357 kts | 235° |
| 2026-04-26 23:10 | 4.55107 | -74.34839 | 15955 ft | 361 kts | 235° |
| 2026-04-26 23:10 | 4.53661 | -74.36902 | 15900 ft | 362 kts | 235° |
| 2026-04-26 23:10 | 4.52215 | -74.38973 | 15882 ft | 363 kts | 235° |
| 2026-04-26 23:10 | 4.50774 | -74.41042 | 15864 ft | 363 kts | 235° |
| 2026-04-26 23:11 | 4.49329 | -74.43120 | 15839 ft | 363 kts | 235° |
| 2026-04-26 23:11 | 4.47889 | -74.45195 | 15834 ft | 363 kts | 235° |
| 2026-04-26 23:11 | 4.46449 | -74.47274 | 15834 ft | 363 kts | 235° |
| 2026-04-26 23:11 | 4.45009 | -74.49354 | 15820 ft | 363 kts | 235° |
| 2026-04-26 23:12 | 4.43570 | -74.51432 | 15723 ft | 363 kts | 235° |
| 2026-04-26 23:12 | 4.42127 | -74.53511 | 15698 ft | 363 kts | 235° |
| 2026-04-26 23:12 | 4.40699 | -74.55576 | 15662 ft | 363 kts | 235° |
| 2026-04-26 23:12 | 4.39270 | -74.57642 | 15636 ft | 363 kts | 236° |
| 2026-04-26 23:13 | 4.37833 | -74.59719 | 15607 ft | 363 kts | 235° |
| 2026-04-26 23:13 | 4.36397 | -74.61788 | 15581 ft | 363 kts | 235° |
| 2026-04-26 23:13 | 4.34942 | -74.63880 | 15911 ft | 367 kts | 235° |
| 2026-04-26 23:13 | 4.33481 | -74.65980 | 16549 ft | 369 kts | 235° |
| 2026-04-26 23:14 | 4.32008 | -74.68098 | 17153 ft | 372 kts | 235° |
| 2026-04-26 23:14 | 4.30522 | -74.70236 | 17731 ft | 375 kts | 235° |
| 2026-04-26 23:14 | 4.29021 | -74.72396 | 18279 ft | 379 kts | 235° |
| 2026-04-26 23:14 | 4.27513 | -74.74570 | 18782 ft | 382 kts | 235° |
| 2026-04-26 23:15 | 4.25996 | -74.76763 | 19279 ft | 385 kts | 235° |
| 2026-04-26 23:15 | 4.24463 | -74.78978 | 19761 ft | 388 kts | 235° |
| 2026-04-26 23:15 | 4.22913 | -74.81215 | 20272 ft | 391 kts | 235° |
| 2026-04-26 23:15 | 4.21373 | -74.83436 | 20939 ft | 394 kts | 235° |
| 2026-04-26 23:16 | 4.19805 | -74.85698 | 21398 ft | 398 kts | 235° |
| 2026-04-26 23:16 | 4.18393 | -74.88135 | 21856 ft | 401 kts | 242° |
| 2026-04-26 23:16 | 4.17116 | -74.90628 | 22307 ft | 404 kts | 242° |
| 2026-04-26 23:16 | 4.15846 | -74.93114 | 22757 ft | 407 kts | 243° |
| 2026-04-26 23:17 | 4.14553 | -74.95651 | 23195 ft | 411 kts | 242° |
| 2026-04-26 23:17 | 4.13249 | -74.98206 | 23607 ft | 414 kts | 242° |
| 2026-04-26 23:17 | 4.11914 | -75.00817 | 23848 ft | 416 kts | 242° |
| 2026-04-26 23:17 | 4.10615 | -75.03353 | 23921 ft | 409 kts | 242° |
| 2026-04-26 23:18 | 4.09334 | -75.05853 | 23967 ft | 400 kts | 242° |
| 2026-04-26 23:18 | 4.08084 | -75.08289 | 23966 ft | 389 kts | 242° |
| 2026-04-26 23:18 | 4.06849 | -75.10693 | 23965 ft | 386 kts | 242° |
| 2026-04-26 23:18 | 4.05623 | -75.13084 | 23955 ft | 386 kts | 242° |
| 2026-04-26 23:19 | 4.04400 | -75.15469 | 23924 ft | 385 kts | 242° |
| 2026-04-26 23:19 | 4.03179 | -75.17850 | 23923 ft | 385 kts | 242° |
| 2026-04-26 23:19 | 4.01958 | -75.20234 | 23923 ft | 385 kts | 242° |
| 2026-04-26 23:19 | 4.00734 | -75.22619 | 23942 ft | 385 kts | 242° |
| 2026-04-26 23:20 | 3.99510 | -75.25003 | 23942 ft | 385 kts | 242° |
| 2026-04-26 23:20 | 3.98289 | -75.27386 | 23912 ft | 385 kts | 242° |
| 2026-04-26 23:20 | 3.97066 | -75.29772 | 23912 ft | 385 kts | 242° |
| 2026-04-26 23:20 | 3.95845 | -75.32155 | 23912 ft | 385 kts | 242° |
| 2026-04-26 23:21 | 3.94623 | -75.34540 | 23909 ft | 385 kts | 242° |
| 2026-04-26 23:21 | 3.93401 | -75.36923 | 23943 ft | 385 kts | 242° |
| 2026-04-26 23:21 | 3.92174 | -75.39312 | 23942 ft | 385 kts | 242° |
| 2026-04-26 23:21 | 3.90951 | -75.41697 | 23942 ft | 385 kts | 242° |
| 2026-04-26 23:22 | 3.89727 | -75.44079 | 23942 ft | 384 kts | 242° |
| 2026-04-26 23:22 | 3.88504 | -75.46455 | 23942 ft | 384 kts | 242° |
| 2026-04-26 23:22 | 3.87282 | -75.48830 | 23942 ft | 383 kts | 242° |
| 2026-04-26 23:22 | 3.86076 | -75.51208 | 23990 ft | 384 kts | 243° |
| 2026-04-26 23:23 | 3.84912 | -75.53615 | 23988 ft | 384 kts | 244° |
| 2026-04-26 23:23 | 3.83778 | -75.56038 | 23952 ft | 384 kts | 244° |
| 2026-04-26 23:23 | 3.82673 | -75.58433 | 23953 ft | 384 kts | 245° |
| 2026-04-26 23:23 | 3.81556 | -75.60849 | 23953 ft | 384 kts | 244° |
| 2026-04-26 23:24 | 3.80429 | -75.63268 | 23949 ft | 384 kts | 244° |
| 2026-04-26 23:24 | 3.79293 | -75.65692 | 24003 ft | 384 kts | 244° |
| 2026-04-26 23:24 | 3.78156 | -75.68108 | 24002 ft | 384 kts | 244° |
| 2026-04-26 23:24 | 3.77015 | -75.70526 | 24002 ft | 384 kts | 244° |
| 2026-04-26 23:25 | 3.75871 | -75.72941 | 24002 ft | 384 kts | 244° |
| 2026-04-26 23:25 | 3.74728 | -75.75356 | 24002 ft | 384 kts | 244° |
| 2026-04-26 23:25 | 3.73588 | -75.77763 | 23698 ft | 384 kts | 244° |
| 2026-04-26 23:25 | 3.72434 | -75.80204 | 23082 ft | 387 kts | 244° |
| 2026-04-26 23:26 | 3.71291 | -75.82622 | 22604 ft | 383 kts | 244° |
| 2026-04-26 23:26 | 3.70156 | -75.85026 | 22107 ft | 381 kts | 244° |
| 2026-04-26 23:26 | 3.69409 | -75.86613 | 21769 ft | 379 kts | 244° |
| 2026-04-26 23:26 | 3.68286 | -75.88996 | 21267 ft | 377 kts | 244° |
| 2026-04-26 23:27 | 3.67173 | -75.91354 | 20805 ft | 375 kts | 244° |
| 2026-04-26 23:27 | 3.66049 | -75.93727 | 20324 ft | 373 kts | 244° |
| 2026-04-26 23:27 | 3.64944 | -75.96059 | 19857 ft | 372 kts | 244° |
| 2026-04-26 23:27 | 3.63834 | -75.98401 | 19381 ft | 371 kts | 244° |
| 2026-04-26 23:28 | 3.62733 | -76.00734 | 18918 ft | 370 kts | 244° |
| 2026-04-26 23:28 | 3.61642 | -76.03054 | 18449 ft | 369 kts | 245° |
| 2026-04-26 23:28 | 3.60547 | -76.05383 | 17850 ft | 370 kts | 245° |
| 2026-04-26 23:28 | 3.59455 | -76.07698 | 17445 ft | 365 kts | 244° |
| 2026-04-26 23:29 | 3.58371 | -76.09983 | 17049 ft | 360 kts | 244° |
| 2026-04-26 23:29 | 3.57303 | -76.12232 | 16592 ft | 358 kts | 245° |
| 2026-04-26 23:29 | 3.56239 | -76.14472 | 16155 ft | 355 kts | 244° |
| 2026-04-26 23:29 | 3.55181 | -76.16706 | 15721 ft | 353 kts | 244° |
| 2026-04-26 23:30 | 3.54136 | -76.18920 | 15273 ft | 352 kts | 245° |
| 2026-04-26 23:30 | 3.53105 | -76.21108 | 14831 ft | 351 kts | 244° |
| 2026-04-26 23:30 | 3.52068 | -76.23306 | 14383 ft | 350 kts | 244° |
| 2026-04-26 23:30 | 3.51004 | -76.25496 | 13944 ft | 349 kts | 240° |
| 2026-04-26 23:31 | 3.49504 | -76.27423 | 13473 ft | 347 kts | 223° |
| 2026-04-26 23:31 | 3.47567 | -76.28790 | 13021 ft | 345 kts | 206° |
| 2026-04-26 23:31 | 3.45317 | -76.29557 | 12578 ft | 342 kts | 192° |
| 2026-04-26 23:31 | 3.43011 | -76.30062 | 12324 ft | 333 kts | 192° |
| 2026-04-26 23:32 | 3.40792 | -76.30548 | 12225 ft | 321 kts | 192° |
| 2026-04-26 23:32 | 3.38639 | -76.31019 | 12085 ft | 311 kts | 192° |
| 2026-04-26 23:32 | 3.36549 | -76.31478 | 11950 ft | 302 kts | 192° |
| 2026-04-26 23:32 | 3.34534 | -76.31922 | 11820 ft | 293 kts | 192° |
| 2026-04-26 23:33 | 3.32560 | -76.32361 | 11510 ft | 292 kts | 192° |
| 2026-04-26 23:33 | 3.30625 | -76.32790 | 11199 ft | 279 kts | 192° |
| 2026-04-26 23:33 | 3.28776 | -76.33201 | 10741 ft | 274 kts | 192° |
| 2026-04-26 23:33 | 3.26942 | -76.33658 | 10273 ft | 268 kts | 202° |
| 2026-04-26 23:34 | 3.25504 | -76.34767 | 9834 ft | 263 kts | 237° |
| 2026-04-26 23:34 | 3.24976 | -76.36484 | 9313 ft | 258 kts | 268° |
| 2026-04-26 23:34 | 3.25176 | -76.38249 | 8812 ft | 255 kts | 287° |
| 2026-04-26 23:34 | 3.25919 | -76.39862 | 8179 ft | 258 kts | 305° |
| 2026-04-26 23:35 | 3.27147 | -76.41129 | 7823 ft | 249 kts | 324° |
| 2026-04-26 23:35 | 3.28610 | -76.41903 | 7610 ft | 236 kts | 341° |
| 2026-04-26 23:35 | 3.30179 | -76.42215 | 7370 ft | 226 kts | 358° |
| 2026-04-26 23:35 | 3.31712 | -76.42091 | 7112 ft | 218 kts | 10° |
| 2026-04-26 23:36 | 3.33173 | -76.41836 | 6872 ft | 206 kts | 9° |
| 2026-04-26 23:36 | 3.34549 | -76.41599 | 6622 ft | 194 kts | 9° |
| 2026-04-26 23:36 | 3.35851 | -76.41373 | 6381 ft | 187 kts | 9° |
| 2026-04-26 23:36 | 3.37113 | -76.41154 | 6139 ft | 181 kts | 9° |
| 2026-04-26 23:37 | 3.38322 | -76.40945 | 5911 ft | 176 kts | 9° |
| 2026-04-26 23:37 | 3.39511 | -76.40738 | 5689 ft | 171 kts | 9° |
| 2026-04-26 23:37 | 3.40669 | -76.40538 | 5481 ft | 166 kts | 9° |
| 2026-04-26 23:37 | 3.41786 | -76.40344 | 5250 ft | 159 kts | 9° |
| 2026-04-26 23:38 | 3.42859 | -76.40158 | 5059 ft | 156 kts | 9° |
| 2026-04-26 23:38 | 3.43933 | -76.39971 | 4879 ft | 154 kts | 9° |
| 2026-04-26 23:38 | 3.44996 | -76.39787 | 4704 ft | 154 kts | 8° |
| 2026-04-26 23:38 | 3.46040 | -76.39605 | 4529 ft | 150 kts | 8° |
| 2026-04-26 23:39 | 3.47064 | -76.39428 | 4350 ft | 150 kts | 8° |
| 2026-04-26 23:39 | 3.48098 | -76.39249 | 4158 ft | 151 kts | 8° |
| 2026-04-26 23:39 | 3.49121 | -76.39071 | 3961 ft | 150 kts | 7° |
| 2026-04-26 23:39 | 3.50168 | -76.38889 | 3750 ft | 149 kts | 7° |
| 2026-04-26 23:40 | 3.51170 | -76.38715 | 3541 ft | 147 kts | 7° |
| 2026-04-26 23:40 | 3.52167 | -76.38542 | 3370 ft | 145 kts | 9° |
| 2026-04-26 23:40 | 3.53152 | -76.38368 | 3197 ft | 142 kts | 9° |
| 2026-04-26 23:40 | 3.54037 | -76.38217 | 3169 ft | 104 kts | 9° |
| 2026-04-26 23:41 | 3.54452 | -76.38144 | 3164 ft | 41 kts | 10° |
| 2026-04-26 23:41 | 3.54585 | -76.38134 | 3165 ft | 5 kts | 316° |
| 2026-04-26 23:41 | 3.54600 | -76.38179 | 3164 ft | 7 kts | 280° |
| 2026-04-26 23:41 | 3.54607 | -76.38220 | 3164 ft | 5 kts | 280° |
| 2026-04-26 23:42 | 3.54603 | -76.38255 | 3164 ft | 4 kts | 255° |
| 2026-04-26 23:42 | 3.54537 | -76.38293 | 3164 ft | 14 kts | 189° |
| 2026-04-26 23:42 | 3.54446 | -76.38308 | 3165 ft | 12 kts | 189° |
| 2026-04-26 23:43 | 3.54370 | -76.38321 | 3165 ft | 10 kts | 189° |
| 2026-04-26 23:43 | 3.54307 | -76.38334 | 3167 ft | 8 kts | 191° |
| 2026-04-26 23:43 | 3.54255 | -76.38343 | 3168 ft | 7 kts | 190° |
| 2026-04-26 23:43 | 3.54212 | -76.38350 | 3165 ft | 6 kts | 190° |
| 2026-04-26 23:44 | 3.54175 | -76.38357 | 3165 ft | 7 kts | 190° |
| 2026-04-26 23:44 | 3.54104 | -76.38370 | 3165 ft | 10 kts | 194° |
| 2026-04-26 23:44 | 3.54051 | -76.38409 | 3165 ft | 9 kts | 221° |
| 2026-04-26 23:44 | 3.54003 | -76.38449 | 3164 ft | 9 kts | 219° |
| 2026-04-26 23:45 | 3.53959 | -76.38484 | 3164 ft | 8 kts | 218° |
| 2026-04-26 23:45 | 3.53921 | -76.38515 | 3164 ft | 7 kts | 219° |
| 2026-04-26 23:45 | 3.53853 | -76.38571 | 3163 ft | 11 kts | 220° |
| 2026-04-26 23:45 | 3.53795 | -76.38617 | 3163 ft | 10 kts | 206° |
| 2026-04-26 23:46 | 3.53738 | -76.38631 | 3163 ft | 0 kts | 192° |
| 2026-04-26 23:46 | 3.53728 | -76.38633 | 3163 ft | 3 kts | 192° |
| 2026-04-26 23:47 | 3.53726 | -76.38633 | 3163 ft | 0 kts | 191° |